Time;durP1;ratioP1;P1;durP2;ratioP2;P2;SDS_P1;SDS_P2;PMS_P1;PMS_P2;Temp;Humidity;BMP_temperature;BMP_pressure;BME280_temperature;BME280_humidity;BME280_pressure;Samples;Min_cycle;Max_cycle;Signal;HPM_P1;HPM_P2
2023/07/23 00:00:15;;;;;;;8.83;8.00;;;;;;;18.26;58.14;100509.94;4949965;29;20467;-82
2023/07/23 00:02:46;;;;;;;8.20;7.33;;;;;;;18.28;57.88;100513.25;4946331;29;20454;-81
2023/07/23 00:05:16;;;;;;;9.97;8.97;;;;;;;18.27;57.97;100508.88;4939518;29;20449;-82
2023/07/23 00:07:46;;;;;;;9.23;8.30;;;;;;;18.22;58.19;100508.81;4946243;28;20465;-82
2023/07/23 00:10:16;;;;;;;9.00;7.60;;;;;;;18.22;58.11;100503.34;4925140;29;20463;-82
2023/07/23 00:12:45;;;;;;;8.30;7.50;;;;;;;18.25;58.30;100497.34;4939841;29;20459;-82
2023/07/23 00:15:15;;;;;;;11.20;8.70;;;;;;;18.18;58.40;100494.00;4943048;29;20450;-82
2023/07/23 00:17:44;;;;;;;11.50;8.60;;;;;;;18.13;58.69;100493.97;4947350;29;20464;-82
2023/07/23 00:20:16;;;;;;;10.70;9.43;;;;;;;18.24;58.52;100496.53;4945604;29;20418;-82
2023/07/23 00:22:46;;;;;;;9.33;7.90;;;;;;;18.22;58.10;100487.75;4948999;29;20534;-79
2023/07/23 00:25:16;;;;;;;8.53;7.70;;;;;;;18.19;58.43;100481.97;4952329;29;20502;-83
2023/07/23 00:27:45;;;;;;;11.77;8.67;;;;;;;18.14;58.43;100477.28;4953398;29;20460;-82
2023/07/23 00:30:14;;;;;;;11.60;8.63;;;;;;;18.25;57.96;100475.41;4949604;29;20957;-82
2023/07/23 00:32:43;;;;;;;8.90;8.00;;;;;;;18.22;58.11;100470.47;4946577;29;20817;-82
2023/07/23 00:35:13;;;;;;;9.60;8.33;;;;;;;18.16;58.31;100466.03;4943083;29;20441;-82
2023/07/23 00:37:42;;;;;;;8.97;8.07;;;;;;;18.18;58.29;100464.72;4950082;29;20456;-82
2023/07/23 00:40:13;;;;;;;7.50;6.80;;;;;;;18.22;57.67;100454.03;4960518;28;20436;-82
2023/07/23 00:42:43;;;;;;;10.80;8.53;;;;;;;18.31;57.21;100457.94;4953797;28;20646;-81
2023/07/23 00:45:12;;;;;;;12.83;7.50;;;;;;;18.25;57.53;100453.50;4954056;28;20889;-81
2023/07/23 00:47:43;;;;;;;9.50;7.33;;;;;;;18.24;57.66;100457.38;4945501;29;20430;-81
2023/07/23 00:50:15;;;;;;;7.90;7.10;;;;;;;18.31;57.86;100451.63;4949481;29;20978;-80
2023/07/23 00:52:45;;;;;;;6.83;6.03;;;;;;;18.39;56.95;100452.00;4941105;29;20878;-80
2023/07/23 00:55:15;;;;;;;7.37;6.67;;;;;;;18.40;56.54;100445.41;4947245;29;20440;-80
2023/07/23 00:57:45;;;;;;;9.87;8.17;;;;;;;18.38;57.22;100439.38;4950524;29;20472;-80
2023/07/23 01:00:15;;;;;;;9.53;8.43;;;;;;;18.35;57.11;100439.09;4939604;29;20462;-81
2023/07/23 01:02:44;;;;;;;12.30;7.90;;;;;;;18.39;56.86;100435.56;4940998;29;20442;-80
2023/07/23 01:05:14;;;;;;;7.53;6.77;;;;;;;18.47;56.33;100435.03;4928183;29;20426;-80
2023/07/23 01:07:45;;;;;;;13.50;8.30;;;;;;;18.45;56.14;100437.22;4944594;29;20495;-80
2023/07/23 01:10:18;;;;;;;8.77;6.97;;;;;;;18.55;56.28;100429.09;4955104;29;20465;-80
2023/07/23 01:12:47;;;;;;;12.30;6.83;;;;;;;18.44;56.44;100424.63;4963686;28;20467;-82
2023/07/23 01:15:16;;;;;;;8.33;7.53;;;;;;;18.31;56.56;100426.97;4954335;28;20412;-82
2023/07/23 01:17:47;;;;;;;7.20;5.73;;;;;;;18.37;56.10;100424.03;4963143;28;20458;-81
2023/07/23 01:20:16;;;;;;;7.87;7.10;;;;;;;18.34;56.47;100419.09;4947041;28;20411;-81
2023/07/23 01:22:47;;;;;;;8.63;7.47;;;;;;;18.24;56.81;100419.84;4969407;28;20435;-81
2023/07/23 01:25:16;;;;;;;7.73;6.00;;;;;;;18.40;56.50;100414.44;4969449;28;20474;-82
2023/07/23 01:27:45;;;;;;;8.23;7.47;;;;;;;18.30;56.58;100417.16;4965234;28;20482;-80
2023/07/23 01:30:15;;;;;;;7.10;6.40;;;;;;;18.27;56.85;100417.66;4958965;28;20457;-81
2023/07/23 01:32:44;;;;;;;10.20;7.57;;;;;;;18.29;56.80;100416.31;4958606;28;20451;-80
2023/07/23 01:35:15;;;;;;;7.30;6.60;;;;;;;18.19;57.28;100416.25;4937878;29;20439;-80
2023/07/23 01:37:47;;;;;;;7.10;6.40;;;;;;;18.27;57.20;100413.00;4955449;28;20460;-81
2023/07/23 01:40:17;;;;;;;9.80;7.07;;;;;;;18.24;57.27;100419.03;4955899;29;20441;-83
2023/07/23 01:42:46;;;;;;;11.63;7.93;;;;;;;18.21;58.20;100425.84;4936334;29;20432;-82
2023/07/23 01:45:16;;;;;;;8.00;7.20;;;;;;;18.19;58.43;100438.97;4940993;29;20444;-82
2023/07/23 01:47:45;;;;;;;9.30;7.57;;;;;;;18.26;59.24;100444.22;4940968;29;20508;-82
2023/07/23 01:50:15;;;;;;;7.87;7.07;;;;;;;18.23;60.11;100450.22;4924368;29;20448;-83
2023/07/23 01:52:44;;;;;;;8.57;7.77;;;;;;;18.20;59.99;100448.03;4938297;29;20435;-82
2023/07/23 01:55:15;;;;;;;8.30;6.53;;;;;;;18.02;61.72;100449.25;4944209;29;20996;-82
2023/07/23 01:57:44;;;;;;;7.90;6.90;;;;;;;17.95;62.73;100456.03;4949196;29;20459;-82
2023/07/23 02:00:14;;;;;;;8.10;7.10;;;;;;;17.88;65.61;100469.09;4956094;29;20528;-82
2023/07/23 02:02:43;;;;;;;7.80;7.10;;;;;;;17.72;67.59;100482.63;4945846;29;20433;-80
2023/07/23 02:05:13;;;;;;;9.83;8.00;;;;;;;17.62;65.94;100481.75;4956020;29;20927;-79
2023/07/23 02:07:42;;;;;;;8.90;7.10;;;;;;;17.41;68.31;100491.59;4940135;29;20480;-80
2023/07/23 02:10:13;;;;;;;9.03;7.70;;;;;;;17.33;69.41;100486.59;4948826;29;20442;-82
2023/07/23 02:12:43;;;;;;;8.33;7.33;;;;;;;17.27;69.51;100484.88;4955138;29;20448;-83
2023/07/23 02:15:12;;;;;;;8.10;7.30;;;;;;;17.17;71.16;100496.53;4949498;29;20440;-81
2023/07/23 02:17:42;;;;;;;7.97;7.00;;;;;;;17.06;71.45;100480.25;4957663;29;20438;-83
2023/07/23 02:20:12;;;;;;;9.57;8.33;;;;;;;17.04;71.88;100485.16;4946499;29;20437;-83
2023/07/23 02:22:41;;;;;;;7.30;6.60;;;;;;;16.98;74.35;100483.44;4943793;29;20399;-83
2023/07/23 02:25:10;;;;;;;10.00;7.53;;;;;;;17.00;73.91;100492.19;4940910;29;20797;-82
2023/07/23 02:27:41;;;;;;;9.47;7.27;;;;;;;16.87;74.95;100491.50;4939112;29;20476;-83
2023/07/23 02:30:11;;;;;;;11.50;8.60;;;;;;;16.90;77.29;100493.72;4942242;29;20449;-81
2023/07/23 02:32:40;;;;;;;8.80;7.57;;;;;;;16.85;76.23;100482.72;4952486;29;20809;-81
2023/07/23 02:35:10;;;;;;;7.80;7.10;;;;;;;16.79;78.81;100489.22;4935031;29;20441;-81
2023/07/23 02:37:39;;;;;;;7.67;6.73;;;;;;;16.75;79.41;100487.25;4955593;29;20459;-81
2023/07/23 02:40:09;;;;;;;8.87;7.97;;;;;;;16.66;79.92;100492.28;4950844;29;20429;-82
2023/07/23 02:42:40;;;;;;;8.47;7.10;;;;;;;16.64;81.00;100491.72;4946293;29;20430;-82
2023/07/23 02:45:11;;;;;;;9.10;8.20;;;;;;;16.51;81.89;100490.13;4931923;29;20500;-82
2023/07/23 02:47:40;;;;;;;9.37;8.37;;;;;;;16.55;83.56;100482.28;4931594;29;20891;-82
2023/07/23 02:50:10;;;;;;;10.53;9.50;;;;;;;16.53;82.33;100478.97;4943754;29;20425;-82
2023/07/23 02:52:39;;;;;;;9.50;8.60;;;;;;;16.51;83.95;100486.56;4950245;29;20535;-82
2023/07/23 02:55:09;;;;;;;9.60;8.60;;;;;;;16.58;84.64;100491.88;4949907;29;20445;-83
2023/07/23 02:57:40;;;;;;;10.57;9.27;;;;;;;16.41;86.22;100486.44;4950076;29;20496;-81
2023/07/23 03:00:11;;;;;;;9.93;9.03;;;;;;;16.32;85.91;100483.28;4938466;29;20813;-81
2023/07/23 03:02:40;;;;;;;11.47;8.50;;;;;;;16.38;88.27;100481.47;4941744;29;20480;-82
2023/07/23 03:05:10;;;;;;;10.60;9.50;;;;;;;16.37;88.48;100488.00;4947895;29;20444;-82
2023/07/23 03:07:40;;;;;;;10.40;8.73;;;;;;;16.25;89.81;100492.75;4962795;29;20459;-84
2023/07/23 03:10:10;;;;;;;11.13;10.03;;;;;;;16.17;90.79;100487.69;4944758;29;20797;-82
2023/07/23 03:12:41;;;;;;;11.03;10.00;;;;;;;16.04;92.41;100478.75;4946492;29;20465;-82
2023/07/23 03:15:11;;;;;;;10.60;9.50;;;;;;;16.03;93.95;100481.72;4931065;29;20869;-82
2023/07/23 03:17:40;;;;;;;10.93;8.40;;;;;;;16.01;93.86;100479.25;4934356;29;20460;-81
2023/07/23 03:20:10;;;;;;;13.77;9.27;;;;;;;16.01;94.98;100475.69;4960709;29;20418;-82
2023/07/23 03:22:40;;;;;;;14.57;9.73;;;;;;;15.96;94.50;100470.16;4957309;28;20452;-84
2023/07/23 03:25:09;;;;;;;13.43;10.27;;;;;;;16.00;93.29;100479.50;4961315;29;20400;-81
2023/07/23 03:27:40;;;;;;;12.40;10.13;;;;;;;15.99;94.67;100478.66;4962339;29;20459;-80
2023/07/23 03:30:10;;;;;;;13.60;9.43;;;;;;;15.95;94.34;100477.50;4956345;29;20436;-82
2023/07/23 03:32:40;;;;;;;10.40;9.50;;;;;;;15.99;94.27;100475.94;4953894;29;20476;-80
2023/07/23 03:35:10;;;;;;;11.67;9.87;;;;;;;16.03;95.46;100468.06;4957352;29;20439;-81
2023/07/23 03:37:39;;;;;;;10.93;9.77;;;;;;;16.04;96.27;100470.56;4941205;29;20477;-81
2023/07/23 03:40:09;;;;;;;13.13;10.33;;;;;;;16.07;95.27;100467.31;4951755;29;20419;-81
2023/07/23 03:42:40;;;;;;;11.53;10.20;;;;;;;16.05;95.17;100471.41;4959685;29;20424;-81
2023/07/23 03:45:10;;;;;;;16.87;10.90;;;;;;;16.00;95.21;100469.41;4949585;29;20429;-81
2023/07/23 03:47:39;;;;;;;11.67;10.23;;;;;;;16.01;96.33;100482.00;4950980;29;20490;-80
2023/07/23 03:50:09;;;;;;;12.47;10.17;;;;;;;16.01;96.86;100482.00;4957063;29;20472;-81
2023/07/23 03:52:38;;;;;;;12.80;10.90;;;;;;;16.02;97.37;100483.63;4950082;29;20469;-80
2023/07/23 03:55:08;;;;;;;11.80;10.60;;;;;;;16.00;98.11;100480.31;4956643;28;20449;-81
2023/07/23 03:57:37;;;;;;;12.13;10.87;;;;;;;16.02;98.41;100482.81;4956508;29;20481;-81
2023/07/23 04:00:09;;;;;;;12.03;11.03;;;;;;;16.02;97.35;100477.34;4959341;28;20429;-81
2023/07/23 04:02:42;;;;;;;13.27;9.97;;;;;;;16.06;96.94;100473.88;4962059;28;20433;-81
2023/07/23 04:05:12;;;;;;;13.37;10.67;;;;;;;15.97;97.97;100472.66;4965488;28;20488;-81
2023/07/23 04:07:41;;;;;;;11.60;10.40;;;;;;;16.13;95.55;100467.41;4957067;28;20484;-80
2023/07/23 04:10:11;;;;;;;12.90;10.70;;;;;;;15.99;96.80;100467.75;4966195;28;20392;-84
2023/07/23 04:12:44;;;;;;;12.53;11.20;;;;;;;15.99;95.34;100461.47;4960074;28;20432;-80
2023/07/23 04:15:17;;;;;;;12.03;10.50;;;;;;;16.11;95.84;100475.03;4958031;28;20649;-81
2023/07/23 04:17:46;;;;;;;10.97;9.83;;;;;;;16.09;95.49;100470.66;4953183;28;20480;-81
2023/07/23 04:20:16;;;;;;;13.80;11.50;;;;;;;16.18;95.21;100473.78;4961432;28;20435;-81
2023/07/23 04:22:45;;;;;;;11.50;10.27;;;;;;;16.23;95.13;100473.88;4955357;28;20439;-80
2023/07/23 04:25:14;;;;;;;13.30;10.80;;;;;;;16.18;95.45;100475.69;4952943;28;20507;-80
2023/07/23 04:27:44;;;;;;;10.70;9.70;;;;;;;16.25;95.47;100468.16;4955680;28;20475;-81
2023/07/23 04:30:15;;;;;;;12.63;10.93;;;;;;;16.26;94.88;100465.19;4960343;28;20425;-81
2023/07/23 04:32:44;;;;;;;12.40;11.20;;;;;;;16.30;95.03;100458.16;4955592;28;20426;-81
2023/07/23 04:35:13;;;;;;;11.10;9.87;;;;;;;16.38;93.83;100463.19;4966273;28;20400;-81
2023/07/23 04:37:42;;;;;;;12.73;11.33;;;;;;;16.51;92.09;100467.44;4958245;28;20471;-80
2023/07/23 04:40:13;;;;;;;12.13;10.93;;;;;;;16.59;91.65;100460.78;4957812;28;20453;-80
2023/07/23 04:42:42;;;;;;;11.43;10.07;;;;;;;16.66;91.50;100456.78;4957410;28;20476;-81
2023/07/23 04:45:11;;;;;;;11.97;10.77;;;;;;;16.66;90.56;100456.78;4964022;28;20425;-80
2023/07/23 04:47:42;;;;;;;12.03;10.83;;;;;;;16.62;91.32;100466.56;4952851;29;20451;-82
2023/07/23 04:50:11;;;;;;;12.90;10.70;;;;;;;16.60;92.94;100459.69;4954563;28;20444;-83
2023/07/23 04:52:40;;;;;;;11.70;10.60;;;;;;;16.71;92.28;100465.03;4938736;28;20446;-82
2023/07/23 04:55:10;;;;;;;11.73;10.63;;;;;;;16.78;92.11;100460.22;4957278;28;20483;-81
2023/07/23 04:57:39;;;;;;;11.87;10.50;;;;;;;16.95;89.80;100458.25;4953264;28;20472;-81
2023/07/23 05:00:10;;;;;;;13.30;11.57;;;;;;;16.95;90.49;100458.25;4967627;28;20416;-81
2023/07/23 05:02:39;;;;;;;13.30;11.97;;;;;;;17.21;89.21;100469.50;4962117;28;20416;-82
2023/07/23 05:05:10;;;;;;;14.73;11.07;;;;;;;17.39;87.96;100474.63;4961486;29;20439;-83
2023/07/23 05:07:40;;;;;;;11.20;10.13;;;;;;;17.48;87.54;100467.59;4965378;28;20450;-81
2023/07/23 05:10:10;;;;;;;13.40;11.13;;;;;;;17.58;87.63;100475.91;4953624;28;20415;-79
2023/07/23 05:12:40;;;;;;;12.20;11.03;;;;;;;17.78;85.86;100476.13;4961261;28;20504;-80
2023/07/23 05:15:14;;;;;;;12.40;10.40;;;;;;;17.76;85.31;100481.06;4970284;28;20529;-80
2023/07/23 05:17:43;;;;;;;12.07;10.77;;;;;;;17.80;84.07;100487.66;4957928;29;20461;-82
2023/07/23 05:20:15;;;;;;;11.50;10.10;;;;;;;17.78;84.02;100489.00;4948362;29;20440;-80
2023/07/23 05:22:45;;;;;;;14.13;11.07;;;;;;;17.79;83.30;100491.47;4979032;28;20462;-82
2023/07/23 05:25:14;;;;;;;13.57;10.87;;;;;;;17.89;82.97;100489.91;4965182;28;20416;-80
2023/07/23 05:27:43;;;;;;;12.87;11.53;;;;;;;18.01;82.42;100491.38;4968200;28;20459;-82
2023/07/23 05:30:14;;;;;;;14.13;11.20;;;;;;;17.97;82.46;100482.06;4969416;28;20403;-79
2023/07/23 05:32:43;;;;;;;12.77;11.47;;;;;;;17.88;83.69;100477.31;4964016;28;20399;-80
2023/07/23 05:35:14;;;;;;;12.90;11.60;;;;;;;17.93;83.51;100467.25;4958227;28;20395;-81
2023/07/23 05:37:43;;;;;;;13.27;11.00;;;;;;;17.82;83.71;100460.03;4959900;28;20577;-81
2023/07/23 05:40:12;;;;;;;11.70;10.60;;;;;;;17.88;84.45;100448.03;4954595;29;20411;-81
2023/07/23 05:42:42;;;;;;;10.90;9.83;;;;;;;17.99;85.46;100458.00;4947289;29;20475;-81
2023/07/23 05:45:11;;;;;;;12.20;11.00;;;;;;;18.26;81.41;100466.13;4945934;29;20585;-81
2023/07/23 05:47:40;;;;;;;12.23;10.83;;;;;;;18.22;81.75;100465.84;4947816;29;20486;-79
2023/07/23 05:50:10;;;;;;;10.27;9.17;;;;;;;18.24;80.66;100462.84;4937880;29;20404;-81
2023/07/23 05:52:41;;;;;;;11.80;10.37;;;;;;;18.48;81.94;100463.28;4945563;29;20487;-81
2023/07/23 05:55:10;;;;;;;13.00;11.70;;;;;;;18.63;79.08;100472.44;4945788;29;20442;-81
2023/07/23 05:57:39;;;;;;;14.30;10.20;;;;;;;18.67;79.05;100472.72;4945404;29;20443;-80
2023/07/23 06:00:09;;;;;;;10.73;9.60;;;;;;;18.63;77.38;100466.97;4943721;29;20496;-81
2023/07/23 06:02:41;;;;;;;12.00;10.70;;;;;;;18.73;77.32;100462.63;4943243;29;20408;-81
2023/07/23 06:05:10;;;;;;;12.10;9.80;;;;;;;18.74;77.34;100462.34;4945220;29;20532;-81
2023/07/23 06:07:41;;;;;;;10.70;9.70;;;;;;;18.69;77.21;100459.56;4951061;29;20517;-81
2023/07/23 06:10:11;;;;;;;12.50;10.50;;;;;;;18.76;77.08;100467.56;4941672;29;20447;-82
2023/07/23 06:12:41;;;;;;;10.77;9.63;;;;;;;18.98;75.80;100465.47;4946556;29;20409;-82
2023/07/23 06:15:10;;;;;;;11.30;9.27;;;;;;;19.19;73.91;100464.47;4955525;29;20504;-82
2023/07/23 06:17:40;;;;;;;12.23;10.00;;;;;;;19.61;71.75;100460.75;4943211;29;20428;-84
2023/07/23 06:20:10;;;;;;;12.80;10.10;;;;;;;20.00;70.48;100456.38;4951070;29;20513;-84
2023/07/23 06:22:40;;;;;;;9.77;8.77;;;;;;;20.38;68.83;100453.06;4949207;29;20407;-82
2023/07/23 06:25:10;;;;;;;9.90;8.90;;;;;;;20.69;67.07;100458.53;4951352;29;20457;-82
2023/07/23 06:27:40;;;;;;;11.47;9.27;;;;;;;20.88;65.27;100451.31;4954158;28;20438;-82
2023/07/23 06:30:10;;;;;;;10.87;9.70;;;;;;;21.08;64.43;100451.22;4952252;29;20439;-82
2023/07/23 06:32:39;;;;;;;8.97;8.00;;;;;;;21.45;63.99;100455.44;4950393;29;20395;-82
2023/07/23 06:35:10;;;;;;;10.47;9.40;;;;;;;21.34;62.67;100445.63;4953844;29;20519;-80
2023/07/23 06:37:41;;;;;;;9.40;8.50;;;;;;;21.50;62.04;100444.41;4944298;29;20431;-80
2023/07/23 06:40:11;;;;;;;8.40;7.50;;;;;;;21.44;62.22;100446.38;4944508;29;20443;-84
2023/07/23 06:42:40;;;;;;;9.43;8.27;;;;;;;21.24;62.38;100439.06;4943131;29;20837;-80
2023/07/23 06:45:11;;;;;;;8.47;7.67;;;;;;;21.27;62.62;100442.34;4945706;29;20498;-80
2023/07/23 06:48:41;;;;;;;;;;;;;;;;;;;;;
2023/07/23 07:10:36;;;;;;;7.93;5.70;;;;;;;23.27;55.16;100428.88;4236732;26;20868;-82
2023/07/23 07:47:36;;;;;;;;;;;;;;;;;;;;;
2023/07/23 07:50:35;;;;;;;8.63;7.20;;;;;;;24.16;49.67;100426.91;4828839;29;20464;-81
2023/07/23 07:53:44;;;;;;;7.93;7.17;;;;;;;24.20;49.37;100425.25;4860389;29;20475;-82
2023/07/23 07:56:42;;;;;;;7.90;7.10;;;;;;;24.09;49.72;100432.03;4866473;29;20468;-80
2023/07/23 07:59:15;;;;;;;8.93;7.60;;;;;;;23.77;50.63;100417.06;4887277;29;20468;-82
2023/07/23 08:01:47;;;;;;;7.03;6.33;;;;;;;23.34;50.21;100418.28;4886008;29;20428;-80
2023/07/23 08:04:48;;;;;;;7.60;6.80;;;;;;;23.23;51.08;100408.53;4885602;29;20447;-83
2023/07/23 08:29:44;;;;;;;7.57;6.50;;;;;;;22.92;51.82;100395.13;4952420;28;20462;-84
2023/07/23 08:32:36;;;;;;;8.00;7.20;;;;;;;23.05;51.74;100390.81;4909882;29;20439;-81
2023/07/23 08:35:13;;;;;;;8.17;6.47;;;;;;;23.33;50.37;100394.56;4942166;29;20457;-83
2023/07/23 08:37:51;;;;;;;6.23;5.63;;;;;;;23.25;50.12;100393.28;4945528;29;20447;-82
2023/07/23 08:40:27;;;;;;;7.50;6.70;;;;;;;23.51;49.67;100387.41;4952539;29;20436;-82
2023/07/23 08:50:42;;;;;;;6.90;6.10;;;;;;;23.34;49.12;100390.66;4827504;29;20481;-82
2023/07/23 08:53:34;;;;;;;8.67;7.47;;;;;;;23.67;48.61;100378.56;4928426;28;20444;-81
2023/07/23 08:56:25;;;;;;;8.70;6.60;;;;;;;23.99;48.64;100386.06;4930929;29;20443;-82
2023/07/23 08:59:27;;;;;;;8.50;5.47;;;;;;;23.96;46.92;100380.31;4948354;29;20457;-83
2023/07/23 09:02:05;;;;;;;7.57;6.20;;;;;;;24.29;46.52;100384.72;4897768;29;20480;-84
2023/07/23 09:04:59;;;;;;;8.40;6.97;;;;;;;24.81;46.28;100386.16;4942693;29;20455;-81
2023/07/23 09:11:22;;;;;;;8.00;7.13;;;;;;;25.40;45.10;100390.66;4934912;29;20472;-83
2023/07/23 09:22:19;;;;;;;6.77;6.10;;;;;;;25.85;43.35;100374.88;4885495;29;20449;-83
2023/07/23 09:25:17;;;;;;;7.37;6.40;;;;;;;25.57;43.67;100380.88;4933461;28;20438;-82
2023/07/23 09:28:24;;;;;;;10.10;6.53;;;;;;;25.79;42.83;100378.13;4935587;29;20815;-82
2023/07/23 10:00:22;;;;;;;6.73;6.10;;;;;;;26.19;39.74;100340.19;5015052;23;20482;-82
2023/07/23 10:03:01;;;;;;;8.40;5.90;;;;;;;26.78;39.68;100333.22;4964893;29;21002;-83
2023/07/23 10:05:36;;;;;;;6.70;5.53;;;;;;;26.74;39.17;100326.69;4965952;29;20482;-84
2023/07/23 10:08:07;;;;;;;5.80;5.30;;;;;;;26.68;38.61;100326.00;4960122;29;21040;-81
2023/07/23 10:10:38;;;;;;;7.17;6.47;;;;;;;26.68;39.17;100317.69;4946080;29;20471;-84
2023/07/23 10:13:10;;;;;;;8.10;6.30;;;;;;;27.15;38.62;100315.19;4942989;29;20460;-83
2023/07/23 10:15:44;;;;;;;8.70;5.77;;;;;;;27.38;37.64;100310.25;4966604;29;20439;-82
2023/07/23 10:18:15;;;;;;;6.40;5.80;;;;;;;27.35;38.16;100317.31;4962289;29;20441;-83
2023/07/23 10:20:48;;;;;;;6.40;5.80;;;;;;;27.61;37.54;100297.84;4956724;29;20461;-83
2023/07/23 10:23:28;;;;;;;7.20;6.17;;;;;;;27.86;36.98;100307.25;4941629;29;20441;-82
2023/07/23 10:26:23;;;;;;;13.80;6.53;;;;;;;27.72;36.35;100307.47;4951400;29;20896;-84
2023/07/23 10:28:57;;;;;;;9.00;6.23;;;;;;;27.35;36.56;100302.59;4965150;29;20491;-82
2023/07/23 10:31:42;;;;;;;7.03;4.70;;;;;;;27.20;36.79;100303.91;4956329;29;20464;-85
2023/07/23 10:34:43;;;;;;;7.30;5.90;;;;;;;27.20;37.44;100301.94;4961765;29;20445;-84
2023/07/23 10:37:14;;;;;;;6.80;6.20;;;;;;;27.21;37.66;100289.69;4967137;29;20424;-83
2023/07/23 10:39:59;;;;;;;10.27;6.47;;;;;;;27.41;37.29;100290.16;4957820;29;20429;-84
2023/07/23 10:42:46;;;;;;;6.07;5.47;;;;;;;27.02;37.55;100289.19;4965667;29;20432;-81
2023/07/23 10:45:28;;;;;;;6.97;6.27;;;;;;;27.36;37.86;100281.97;4964542;28;20444;-82
2023/07/23 10:48:06;;;;;;;7.33;6.63;;;;;;;27.84;37.41;100273.41;4973007;28;20455;-82
2023/07/23 10:50:39;;;;;;;7.00;6.00;;;;;;;27.95;36.33;100277.47;4970939;29;20471;-84
2023/07/23 10:53:15;;;;;;;7.63;6.53;;;;;;;27.82;36.70;100276.53;4967819;28;20411;-84
2023/07/23 10:55:47;;;;;;;8.30;6.80;;;;;;;27.67;36.98;100263.97;4962025;29;20447;-86
2023/07/23 10:58:22;;;;;;;7.10;6.40;;;;;;;28.17;37.09;100256.97;4967003;29;20438;-83
2023/07/23 11:01:03;;;;;;;6.70;6.10;;;;;;;28.17;36.81;100265.31;4965779;28;20560;-82
2023/07/23 11:03:35;;;;;;;8.93;6.13;;;;;;;28.33;36.93;100261.59;4963656;29;20457;-84
2023/07/23 11:06:05;;;;;;;7.83;6.00;;;;;;;27.85;37.59;100256.41;4957186;29;20464;-84
2023/07/23 11:08:34;;;;;;;8.50;6.60;;;;;;;27.87;38.45;100251.34;4950680;29;20485;-85
2023/07/23 11:11:09;;;;;;;8.60;5.60;;;;;;;28.15;36.63;100248.13;4951767;28;20459;-82
2023/07/23 11:13:39;;;;;;;6.07;5.47;;;;;;;28.20;36.94;100245.16;4960121;29;20441;-83
2023/07/23 11:16:09;;;;;;;7.37;6.67;;;;;;;28.51;36.72;100242.84;4953052;29;20437;-84
2023/07/23 11:18:40;;;;;;;7.93;7.10;;;;;;;28.66;37.18;100236.66;4956256;29;20498;-83
2023/07/23 11:21:14;;;;;;;6.07;5.57;;;;;;;28.69;35.80;100235.19;4956697;29;20476;-82
2023/07/23 11:23:43;;;;;;;7.47;6.07;;;;;;;28.71;36.20;100233.72;4946979;29;20467;-84
2023/07/23 11:26:13;;;;;;;8.60;6.10;;;;;;;28.97;35.63;100230.72;4963599;29;20830;-83
2023/07/23 11:28:42;;;;;;;6.60;5.97;;;;;;;28.69;35.98;100221.28;4949014;29;20456;-84
2023/07/23 11:31:16;;;;;;;7.47;6.57;;;;;;;28.70;36.10;100206.19;4950859;29;20537;-84
2023/07/23 11:33:47;;;;;;;7.10;6.50;;;;;;;28.86;36.21;100213.59;4952015;29;20444;-84
2023/07/23 11:36:16;;;;;;;6.93;6.10;;;;;;;29.31;36.11;100218.47;4949880;29;20447;-85
2023/07/23 11:38:47;;;;;;;6.87;5.90;;;;;;;29.39;36.25;100211.97;4954836;29;20460;-83
2023/07/23 11:41:17;;;;;;;8.97;6.97;;;;;;;29.36;35.59;100204.31;4958827;29;20528;-83
2023/07/23 11:43:59;;;;;;;6.93;6.20;;;;;;;29.53;34.92;100209.69;4957535;29;20518;-83
2023/07/23 11:46:28;;;;;;;8.07;5.87;;;;;;;29.36;35.06;100190.38;4953614;29;20960;-84
2023/07/23 11:48:59;;;;;;;7.00;6.13;;;;;;;29.25;35.80;100191.94;4952529;29;20466;-84
2023/07/23 11:51:29;;;;;;;8.13;7.33;;;;;;;29.06;35.69;100186.06;4948568;29;20471;-85
2023/07/23 11:54:02;;;;;;;7.63;6.03;;;;;;;29.01;35.87;100180.72;4950646;29;20427;-83
2023/07/23 11:56:35;;;;;;;6.93;6.33;;;;;;;29.25;35.88;100183.59;4956412;29;20431;-84
2023/07/23 11:59:05;;;;;;;7.37;6.53;;;;;;;29.33;35.32;100175.19;4953120;29;20496;-82
2023/07/23 12:01:37;;;;;;;8.30;6.00;;;;;;;29.41;35.15;100167.88;4958081;29;20448;-84
2023/07/23 12:08:22;;;;;;;6.93;6.30;;;;;;;29.89;33.35;100160.72;4953526;29;20431;-84
2023/07/23 12:10:51;;;;;;;5.47;4.90;;;;;;;30.05;33.05;100159.69;4951973;28;20539;-84
2023/07/23 12:13:26;;;;;;;5.00;4.60;;;;;;;30.22;31.99;100164.19;4945189;29;20447;-84
2023/07/23 12:15:57;;;;;;;5.60;4.90;;;;;;;30.35;31.92;100148.25;4961284;29;20531;-85
2023/07/23 12:18:30;;;;;;;6.47;5.50;;;;;;;29.84;32.13;100153.38;4957688;29;20452;-84
2023/07/23 12:21:21;;;;;;;5.93;5.37;;;;;;;29.85;32.34;100138.28;4943487;29;20494;-85
2023/07/23 12:23:52;;;;;;;6.17;5.20;;;;;;;29.63;32.84;100135.94;4954506;29;20444;-84
2023/07/23 12:26:23;;;;;;;9.57;5.67;;;;;;;29.52;32.64;100138.41;4959163;29;20432;-83
2023/07/23 12:28:52;;;;;;;6.30;5.70;;;;;;;29.71;32.77;100129.47;4957710;29;20460;-84
2023/07/23 12:31:21;;;;;;;6.60;5.87;;;;;;;29.96;33.01;100127.50;4961123;28;20467;-83
2023/07/23 12:33:54;;;;;;;8.07;5.43;;;;;;;30.06;31.90;100127.03;4961487;29;20427;-83
2023/07/23 12:36:24;;;;;;;6.00;5.10;;;;;;;29.95;32.73;100118.31;4952960;29;20443;-84
2023/07/23 12:38:55;;;;;;;6.67;5.40;;;;;;;30.10;32.53;100119.59;4961531;29;20491;-82
2023/07/23 12:41:27;;;;;;;9.13;8.23;;;;;;;29.79;32.25;100120.97;4967061;29;20471;-83
2023/07/23 12:43:57;;;;;;;7.37;5.27;;;;;;;29.58;32.84;100117.47;4954866;29;20441;-84
2023/07/23 12:46:26;;;;;;;4.90;4.40;;;;;;;29.75;32.31;100100.53;4955446;29;20444;-82
2023/07/23 12:48:56;;;;;;;5.90;5.40;;;;;;;30.05;32.05;100103.09;4960576;29;20455;-82
2023/07/23 12:51:25;;;;;;;5.70;5.10;;;;;;;29.67;31.13;100098.69;4966060;29;20463;-83
2023/07/23 12:53:56;;;;;;;4.70;3.83;;;;;;;29.23;31.93;100105.94;4964795;29;20447;-84
2023/07/23 12:56:25;;;;;;;5.43;4.93;;;;;;;29.22;32.00;100112.66;4963728;29;20415;-81
2023/07/23 12:58:57;;;;;;;5.63;4.17;;;;;;;29.07;31.73;100101.34;4966005;29;20494;-83
2023/07/23 13:01:26;;;;;;;6.53;4.70;;;;;;;29.12;31.28;100099.16;4964258;29;20463;-82
2023/07/23 13:03:56;;;;;;;5.20;4.70;;;;;;;29.12;31.17;100098.34;4958025;29;20436;-82
2023/07/23 13:06:25;;;;;;;5.43;4.90;;;;;;;29.43;30.16;100095.88;4957392;29;20939;-84
2023/07/23 13:08:57;;;;;;;4.97;4.47;;;;;;;29.48;30.40;100100.41;4960553;29;20549;-83
2023/07/23 13:11:27;;;;;;;5.03;4.20;;;;;;;29.67;30.09;100090.31;4957551;28;20483;-84
2023/07/23 13:13:56;;;;;;;7.23;3.80;;;;;;;29.57;29.13;100098.31;4955546;29;20465;-83
2023/07/23 13:16:25;;;;;;;5.50;5.00;;;;;;;29.61;28.91;100100.06;4963912;29;20436;-83
2023/07/23 13:18:56;;;;;;;6.10;4.63;;;;;;;29.45;29.47;100106.66;4960215;29;20447;-83
2023/07/23 13:21:26;;;;;;;6.20;5.60;;;;;;;29.13;29.17;100095.22;4952457;29;20429;-83
2023/07/23 13:23:56;;;;;;;5.63;5.13;;;;;;;28.73;29.53;100095.00;4952226;29;20437;-84
2023/07/23 13:26:26;;;;;;;6.90;4.90;;;;;;;28.64;30.65;100102.59;4962525;29;20460;-83
2023/07/23 13:28:56;;;;;;;9.50;5.97;;;;;;;28.61;30.92;100086.56;4964792;29;20487;-83
2023/07/23 13:31:26;;;;;;;6.63;4.97;;;;;;;28.75;30.78;100070.41;4961096;28;20467;-83
2023/07/23 13:33:55;;;;;;;8.07;4.93;;;;;;;28.85;30.70;100075.53;4956753;29;20440;-82
2023/07/23 13:36:25;;;;;;;6.27;5.03;;;;;;;28.71;29.15;100061.09;4971326;29;20462;-83
2023/07/23 13:38:56;;;;;;;7.60;5.63;;;;;;;28.70;28.34;100065.03;4964701;29;20456;-84
2023/07/23 13:41:25;;;;;;;6.10;5.03;;;;;;;28.67;28.24;100071.28;4960228;29;20413;-82
2023/07/23 13:43:54;;;;;;;6.87;6.03;;;;;;;28.90;28.20;100068.97;4959524;29;20466;-83
2023/07/23 13:46:24;;;;;;;6.10;5.50;;;;;;;29.07;28.30;100070.72;4967619;29;20814;-83
2023/07/23 13:48:53;;;;;;;6.77;6.10;;;;;;;29.18;28.89;100063.53;4965393;29;20458;-82
2023/07/23 13:51:26;;;;;;;6.80;6.10;;;;;;;29.25;29.21;100080.50;4961890;29;20468;-82
2023/07/23 13:53:56;;;;;;;5.03;4.50;;;;;;;28.85;29.26;100067.16;4966245;29;20432;-81
2023/07/23 13:56:26;;;;;;;5.23;4.30;;;;;;;28.77;29.78;100073.66;4965875;29;20420;-81